sensor_id;sensor_type;location;lat;lon;timestamp;P1;durP1;ratioP1;P2;durP2;ratioP2
14907;SDS011;7545;52.092;7.006;2024-01-06T00:01:43;10.40;;;6.63;;
14907;SDS011;7545;52.092;7.006;2024-01-06T00:04:08;9.53;;;5.33;;
14907;SDS011;7545;52.092;7.006;2024-01-06T00:06:34;11.27;;;6.43;;
14907;SDS011;7545;52.092;7.006;2024-01-06T00:08:59;8.10;;;5.27;;
14907;SDS011;7545;52.092;7.006;2024-01-06T00:11:25;10.37;;;6.30;;
14907;SDS011;7545;52.092;7.006;2024-01-06T00:13:51;9.40;;;6.07;;
14907;SDS011;7545;52.092;7.006;2024-01-06T00:16:17;10.33;;;5.77;;
14907;SDS011;7545;52.092;7.006;2024-01-06T00:18:46;11.30;;;6.83;;
14907;SDS011;7545;52.092;7.006;2024-01-06T00:21:12;9.83;;;6.73;;
14907;SDS011;7545;52.092;7.006;2024-01-06T00:23:39;9.83;;;6.50;;
14907;SDS011;7545;52.092;7.006;2024-01-06T00:26:05;11.10;;;6.90;;
14907;SDS011;7545;52.092;7.006;2024-01-06T00:28:32;13.53;;;7.63;;
14907;SDS011;7545;52.092;7.006;2024-01-06T00:30:57;12.47;;;8.53;;
14907;SDS011;7545;52.092;7.006;2024-01-06T00:33:23;14.07;;;8.97;;
14907;SDS011;7545;52.092;7.006;2024-01-06T00:35:48;13.70;;;8.60;;
14907;SDS011;7545;52.092;7.006;2024-01-06T00:38:14;12.80;;;8.33;;
14907;SDS011;7545;52.092;7.006;2024-01-06T00:40:39;14.40;;;8.33;;
14907;SDS011;7545;52.092;7.006;2024-01-06T00:43:05;15.33;;;9.77;;
14907;SDS011;7545;52.092;7.006;2024-01-06T00:45:30;13.57;;;9.47;;
14907;SDS011;7545;52.092;7.006;2024-01-06T00:47:56;14.57;;;9.77;;
14907;SDS011;7545;52.092;7.006;2024-01-06T00:50:22;15.23;;;8.93;;
14907;SDS011;7545;52.092;7.006;2024-01-06T00:52:48;12.57;;;8.83;;
14907;SDS011;7545;52.092;7.006;2024-01-06T00:55:17;14.20;;;8.40;;
14907;SDS011;7545;52.092;7.006;2024-01-06T00:57:45;11.77;;;8.00;;
14907;SDS011;7545;52.092;7.006;2024-01-06T01:00:11;12.50;;;8.73;;
14907;SDS011;7545;52.092;7.006;2024-01-06T01:02:37;11.53;;;7.33;;
14907;SDS011;7545;52.092;7.006;2024-01-06T01:05:03;12.97;;;8.87;;
14907;SDS011;7545;52.092;7.006;2024-01-06T01:07:29;11.60;;;7.90;;
14907;SDS011;7545;52.092;7.006;2024-01-06T01:09:54;11.40;;;7.17;;
14907;SDS011;7545;52.092;7.006;2024-01-06T01:12:21;11.60;;;7.60;;
14907;SDS011;7545;52.092;7.006;2024-01-06T01:14:48;10.73;;;6.83;;
14907;SDS011;7545;52.092;7.006;2024-01-06T01:17:13;11.33;;;7.77;;
14907;SDS011;7545;52.092;7.006;2024-01-06T01:19:39;14.47;;;8.27;;
14907;SDS011;7545;52.092;7.006;2024-01-06T01:22:05;12.77;;;7.20;;
14907;SDS011;7545;52.092;7.006;2024-01-06T01:24:30;11.97;;;7.40;;
14907;SDS011;7545;52.092;7.006;2024-01-06T01:26:56;10.43;;;6.77;;
14907;SDS011;7545;52.092;7.006;2024-01-06T01:29:22;13.47;;;7.00;;
14907;SDS011;7545;52.092;7.006;2024-01-06T01:31:47;11.30;;;7.30;;
14907;SDS011;7545;52.092;7.006;2024-01-06T01:34:13;13.30;;;7.73;;
14907;SDS011;7545;52.092;7.006;2024-01-06T01:36:38;10.83;;;7.20;;
14907;SDS011;7545;52.092;7.006;2024-01-06T01:39:05;11.93;;;7.60;;
14907;SDS011;7545;52.092;7.006;2024-01-06T01:41:30;11.07;;;7.13;;
14907;SDS011;7545;52.092;7.006;2024-01-06T01:43:56;12.47;;;7.67;;
14907;SDS011;7545;52.092;7.006;2024-01-06T01:46:25;10.73;;;7.67;;
14907;SDS011;7545;52.092;7.006;2024-01-06T01:48:52;10.03;;;6.57;;
14907;SDS011;7545;52.092;7.006;2024-01-06T01:51:22;11.10;;;6.73;;
14907;SDS011;7545;52.092;7.006;2024-01-06T01:53:49;10.70;;;6.73;;
14907;SDS011;7545;52.092;7.006;2024-01-06T01:56:15;9.67;;;6.33;;
14907;SDS011;7545;52.092;7.006;2024-01-06T01:58:42;11.37;;;6.87;;
14907;SDS011;7545;52.092;7.006;2024-01-06T02:01:08;10.43;;;6.50;;
14907;SDS011;7545;52.092;7.006;2024-01-06T02:03:34;10.93;;;5.67;;
14907;SDS011;7545;52.092;7.006;2024-01-06T02:06:00;10.20;;;6.63;;
14907;SDS011;7545;52.092;7.006;2024-01-06T02:08:26;13.67;;;6.90;;
14907;SDS011;7545;52.092;7.006;2024-01-06T02:10:52;10.47;;;6.20;;
14907;SDS011;7545;52.092;7.006;2024-01-06T02:13:19;8.10;;;5.13;;
14907;SDS011;7545;52.092;7.006;2024-01-06T02:15:45;9.37;;;5.77;;
14907;SDS011;7545;52.092;7.006;2024-01-06T02:18:10;13.23;;;6.40;;
14907;SDS011;7545;52.092;7.006;2024-01-06T02:20:36;8.27;;;5.60;;
14907;SDS011;7545;52.092;7.006;2024-01-06T02:23:02;11.47;;;5.83;;
14907;SDS011;7545;52.092;7.006;2024-01-06T02:25:28;8.47;;;5.70;;
14907;SDS011;7545;52.092;7.006;2024-01-06T02:27:54;8.83;;;5.63;;
14907;SDS011;7545;52.092;7.006;2024-01-06T02:30:20;10.23;;;5.40;;
14907;SDS011;7545;52.092;7.006;2024-01-06T02:32:45;10.07;;;5.97;;
14907;SDS011;7545;52.092;7.006;2024-01-06T02:35:11;8.83;;;5.27;;
14907;SDS011;7545;52.092;7.006;2024-01-06T02:37:36;8.33;;;4.83;;
14907;SDS011;7545;52.092;7.006;2024-01-06T02:40:02;8.97;;;5.47;;
14907;SDS011;7545;52.092;7.006;2024-01-06T02:42:28;10.03;;;5.87;;
14907;SDS011;7545;52.092;7.006;2024-01-06T02:44:53;8.90;;;5.57;;
14907;SDS011;7545;52.092;7.006;2024-01-06T02:47:19;9.83;;;6.30;;
14907;SDS011;7545;52.092;7.006;2024-01-06T02:49:45;10.43;;;6.00;;
14907;SDS011;7545;52.092;7.006;2024-01-06T02:52:10;8.73;;;6.33;;
14907;SDS011;7545;52.092;7.006;2024-01-06T02:54:36;10.67;;;6.10;;
14907;SDS011;7545;52.092;7.006;2024-01-06T02:57:01;12.73;;;6.17;;
14907;SDS011;7545;52.092;7.006;2024-01-06T02:59:27;11.97;;;6.40;;
14907;SDS011;7545;52.092;7.006;2024-01-06T03:01:52;9.97;;;6.57;;
14907;SDS011;7545;52.092;7.006;2024-01-06T03:04:18;11.97;;;7.20;;
14907;SDS011;7545;52.092;7.006;2024-01-06T03:06:43;12.70;;;6.23;;
14907;SDS011;7545;52.092;7.006;2024-01-06T03:09:11;10.03;;;6.33;;
14907;SDS011;7545;52.092;7.006;2024-01-06T03:11:36;11.10;;;6.83;;
14907;SDS011;7545;52.092;7.006;2024-01-06T03:14:02;12.17;;;6.33;;
14907;SDS011;7545;52.092;7.006;2024-01-06T03:16:28;10.77;;;6.47;;
14907;SDS011;7545;52.092;7.006;2024-01-06T03:18:53;10.83;;;6.60;;
14907;SDS011;7545;52.092;7.006;2024-01-06T03:21:19;10.73;;;7.07;;
14907;SDS011;7545;52.092;7.006;2024-01-06T03:23:45;9.83;;;6.30;;
14907;SDS011;7545;52.092;7.006;2024-01-06T03:26:11;9.20;;;6.47;;
14907;SDS011;7545;52.092;7.006;2024-01-06T03:28:37;9.93;;;6.40;;
14907;SDS011;7545;52.092;7.006;2024-01-06T03:31:03;8.60;;;5.73;;
14907;SDS011;7545;52.092;7.006;2024-01-06T03:33:28;10.37;;;6.23;;
14907;SDS011;7545;52.092;7.006;2024-01-06T03:35:54;9.97;;;6.20;;
14907;SDS011;7545;52.092;7.006;2024-01-06T03:38:19;10.47;;;6.10;;
14907;SDS011;7545;52.092;7.006;2024-01-06T03:40:45;8.10;;;5.40;;
14907;SDS011;7545;52.092;7.006;2024-01-06T03:43:10;9.47;;;6.00;;
14907;SDS011;7545;52.092;7.006;2024-01-06T03:45:36;8.33;;;5.37;;
14907;SDS011;7545;52.092;7.006;2024-01-06T03:48:01;7.83;;;5.67;;
14907;SDS011;7545;52.092;7.006;2024-01-06T03:50:27;9.87;;;5.93;;
14907;SDS011;7545;52.092;7.006;2024-01-06T03:52:52;8.77;;;6.07;;
14907;SDS011;7545;52.092;7.006;2024-01-06T03:55:18;9.63;;;6.20;;
14907;SDS011;7545;52.092;7.006;2024-01-06T03:57:44;9.23;;;5.73;;
14907;SDS011;7545;52.092;7.006;2024-01-06T04:00:09;8.47;;;5.67;;
14907;SDS011;7545;52.092;7.006;2024-01-06T04:02:35;8.57;;;5.60;;
14907;SDS011;7545;52.092;7.006;2024-01-06T04:05:01;8.30;;;5.73;;
14907;SDS011;7545;52.092;7.006;2024-01-06T04:07:26;6.70;;;5.07;;
14907;SDS011;7545;52.092;7.006;2024-01-06T04:09:52;7.50;;;5.20;;
14907;SDS011;7545;52.092;7.006;2024-01-06T04:12:17;10.80;;;6.23;;
14907;SDS011;7545;52.092;7.006;2024-01-06T04:14:43;9.13;;;5.87;;
14907;SDS011;7545;52.092;7.006;2024-01-06T04:17:08;7.10;;;5.00;;
14907;SDS011;7545;52.092;7.006;2024-01-06T04:19:34;9.07;;;5.73;;
14907;SDS011;7545;52.092;7.006;2024-01-06T04:21:59;7.47;;;5.83;;
14907;SDS011;7545;52.092;7.006;2024-01-06T04:24:25;7.17;;;5.20;;
14907;SDS011;7545;52.092;7.006;2024-01-06T04:26:51;8.27;;;5.30;;
14907;SDS011;7545;52.092;7.006;2024-01-06T04:29:16;8.40;;;5.13;;
14907;SDS011;7545;52.092;7.006;2024-01-06T04:31:42;6.07;;;4.50;;
14907;SDS011;7545;52.092;7.006;2024-01-06T04:34:08;7.90;;;5.30;;
14907;SDS011;7545;52.092;7.006;2024-01-06T04:36:33;9.07;;;5.33;;
14907;SDS011;7545;52.092;7.006;2024-01-06T04:39:02;9.70;;;5.50;;
14907;SDS011;7545;52.092;7.006;2024-01-06T04:41:27;7.67;;;5.07;;
14907;SDS011;7545;52.092;7.006;2024-01-06T04:43:53;7.10;;;4.87;;
14907;SDS011;7545;52.092;7.006;2024-01-06T04:46:18;7.77;;;4.87;;
14907;SDS011;7545;52.092;7.006;2024-01-06T04:48:44;8.07;;;5.47;;
14907;SDS011;7545;52.092;7.006;2024-01-06T04:51:09;7.33;;;4.63;;
14907;SDS011;7545;52.092;7.006;2024-01-06T04:53:36;6.27;;;4.33;;
14907;SDS011;7545;52.092;7.006;2024-01-06T04:56:02;8.57;;;4.90;;
14907;SDS011;7545;52.092;7.006;2024-01-06T04:58:27;8.47;;;5.93;;
14907;SDS011;7545;52.092;7.006;2024-01-06T05:00:53;7.90;;;5.53;;
14907;SDS011;7545;52.092;7.006;2024-01-06T05:03:18;8.17;;;6.30;;
14907;SDS011;7545;52.092;7.006;2024-01-06T05:05:44;9.80;;;6.20;;
14907;SDS011;7545;52.092;7.006;2024-01-06T05:08:10;8.90;;;6.37;;
14907;SDS011;7545;52.092;7.006;2024-01-06T05:10:35;10.20;;;6.83;;
14907;SDS011;7545;52.092;7.006;2024-01-06T05:13:01;14.00;;;7.60;;
14907;SDS011;7545;52.092;7.006;2024-01-06T05:15:26;9.93;;;7.40;;
14907;SDS011;7545;52.092;7.006;2024-01-06T05:17:52;13.93;;;8.73;;
14907;SDS011;7545;52.092;7.006;2024-01-06T05:20:17;12.63;;;8.00;;
14907;SDS011;7545;52.092;7.006;2024-01-06T05:22:43;12.47;;;8.37;;
14907;SDS011;7545;52.092;7.006;2024-01-06T05:25:09;12.00;;;7.63;;
14907;SDS011;7545;52.092;7.006;2024-01-06T05:27:34;11.43;;;7.37;;
14907;SDS011;7545;52.092;7.006;2024-01-06T05:30:00;12.50;;;7.03;;
14907;SDS011;7545;52.092;7.006;2024-01-06T05:32:26;14.50;;;7.70;;
14907;SDS011;7545;52.092;7.006;2024-01-06T05:34:52;10.90;;;7.53;;
14907;SDS011;7545;52.092;7.006;2024-01-06T05:37:17;12.07;;;7.37;;
14907;SDS011;7545;52.092;7.006;2024-01-06T05:39:43;12.10;;;7.33;;
14907;SDS011;7545;52.092;7.006;2024-01-06T05:42:09;10.87;;;7.00;;
14907;SDS011;7545;52.092;7.006;2024-01-06T05:44:37;12.40;;;8.20;;
14907;SDS011;7545;52.092;7.006;2024-01-06T05:47:03;12.43;;;7.57;;
14907;SDS011;7545;52.092;7.006;2024-01-06T05:49:29;13.73;;;7.47;;
14907;SDS011;7545;52.092;7.006;2024-01-06T05:51:55;12.03;;;7.53;;
14907;SDS011;7545;52.092;7.006;2024-01-06T05:54:20;14.60;;;7.63;;
14907;SDS011;7545;52.092;7.006;2024-01-06T05:56:46;11.73;;;7.17;;
14907;SDS011;7545;52.092;7.006;2024-01-06T05:59:12;11.37;;;7.37;;
14907;SDS011;7545;52.092;7.006;2024-01-06T06:01:37;12.03;;;7.47;;
14907;SDS011;7545;52.092;7.006;2024-01-06T06:04:03;13.10;;;7.47;;
14907;SDS011;7545;52.092;7.006;2024-01-06T06:06:28;12.73;;;7.87;;
14907;SDS011;7545;52.092;7.006;2024-01-06T06:08:55;12.77;;;7.70;;
14907;SDS011;7545;52.092;7.006;2024-01-06T06:11:21;12.03;;;8.80;;
14907;SDS011;7545;52.092;7.006;2024-01-06T06:13:46;13.07;;;8.30;;
14907;SDS011;7545;52.092;7.006;2024-01-06T06:16:12;13.57;;;8.63;;
14907;SDS011;7545;52.092;7.006;2024-01-06T06:18:38;15.37;;;8.97;;
14907;SDS011;7545;52.092;7.006;2024-01-06T06:21:04;13.93;;;9.23;;
14907;SDS011;7545;52.092;7.006;2024-01-06T06:23:31;14.80;;;10.40;;
14907;SDS011;7545;52.092;7.006;2024-01-06T06:25:57;15.10;;;9.53;;
14907;SDS011;7545;52.092;7.006;2024-01-06T06:28:22;13.20;;;9.63;;
14907;SDS011;7545;52.092;7.006;2024-01-06T06:30:48;13.40;;;8.80;;
14907;SDS011;7545;52.092;7.006;2024-01-06T06:33:13;13.67;;;8.73;;
14907;SDS011;7545;52.092;7.006;2024-01-06T06:35:39;12.97;;;9.07;;
14907;SDS011;7545;52.092;7.006;2024-01-06T06:38:05;14.53;;;8.87;;
14907;SDS011;7545;52.092;7.006;2024-01-06T06:40:31;12.17;;;8.90;;
14907;SDS011;7545;52.092;7.006;2024-01-06T06:42:56;13.77;;;8.27;;
14907;SDS011;7545;52.092;7.006;2024-01-06T06:45:22;15.30;;;8.70;;
14907;SDS011;7545;52.092;7.006;2024-01-06T06:47:48;14.40;;;8.20;;
14907;SDS011;7545;52.092;7.006;2024-01-06T06:50:15;15.07;;;10.10;;
14907;SDS011;7545;52.092;7.006;2024-01-06T06:52:41;12.43;;;8.93;;
14907;SDS011;7545;52.092;7.006;2024-01-06T06:55:07;17.53;;;10.70;;
14907;SDS011;7545;52.092;7.006;2024-01-06T06:57:33;18.63;;;10.53;;
14907;SDS011;7545;52.092;7.006;2024-01-06T06:59:59;16.90;;;10.27;;
14907;SDS011;7545;52.092;7.006;2024-01-06T07:02:25;17.70;;;10.47;;
14907;SDS011;7545;52.092;7.006;2024-01-06T07:04:51;17.40;;;10.10;;
14907;SDS011;7545;52.092;7.006;2024-01-06T07:07:16;16.67;;;10.43;;
14907;SDS011;7545;52.092;7.006;2024-01-06T07:09:42;17.70;;;11.50;;
14907;SDS011;7545;52.092;7.006;2024-01-06T07:12:07;18.30;;;10.33;;
14907;SDS011;7545;52.092;7.006;2024-01-06T07:14:33;16.40;;;11.30;;
14907;SDS011;7545;52.092;7.006;2024-01-06T07:16:59;21.33;;;11.53;;
14907;SDS011;7545;52.092;7.006;2024-01-06T07:19:24;19.33;;;11.33;;
14907;SDS011;7545;52.092;7.006;2024-01-06T07:21:50;16.97;;;10.30;;
14907;SDS011;7545;52.092;7.006;2024-01-06T07:24:15;19.80;;;11.37;;
14907;SDS011;7545;52.092;7.006;2024-01-06T07:26:41;18.90;;;11.53;;
14907;SDS011;7545;52.092;7.006;2024-01-06T07:29:06;16.83;;;11.40;;
14907;SDS011;7545;52.092;7.006;2024-01-06T07:31:33;18.97;;;11.50;;
14907;SDS011;7545;52.092;7.006;2024-01-06T07:33:59;18.17;;;10.83;;
14907;SDS011;7545;52.092;7.006;2024-01-06T07:36:25;13.87;;;9.70;;
14907;SDS011;7545;52.092;7.006;2024-01-06T07:38:50;20.00;;;12.30;;
14907;SDS011;7545;52.092;7.006;2024-01-06T07:41:17;17.63;;;11.37;;
14907;SDS011;7545;52.092;7.006;2024-01-06T07:43:43;21.60;;;12.20;;
14907;SDS011;7545;52.092;7.006;2024-01-06T07:46:08;18.30;;;10.90;;
14907;SDS011;7545;52.092;7.006;2024-01-06T07:48:34;15.70;;;10.03;;
14907;SDS011;7545;52.092;7.006;2024-01-06T07:51:00;18.07;;;12.63;;
14907;SDS011;7545;52.092;7.006;2024-01-06T07:53:26;16.73;;;10.53;;
14907;SDS011;7545;52.092;7.006;2024-01-06T07:55:52;15.73;;;10.83;;
14907;SDS011;7545;52.092;7.006;2024-01-06T07:58:17;14.77;;;10.03;;
14907;SDS011;7545;52.092;7.006;2024-01-06T08:00:43;18.47;;;10.20;;
14907;SDS011;7545;52.092;7.006;2024-01-06T08:03:09;16.03;;;10.73;;
14907;SDS011;7545;52.092;7.006;2024-01-06T08:05:36;14.63;;;10.10;;
14907;SDS011;7545;52.092;7.006;2024-01-06T08:08:02;17.40;;;10.70;;
14907;SDS011;7545;52.092;7.006;2024-01-06T08:10:29;11.50;;;8.10;;
14907;SDS011;7545;52.092;7.006;2024-01-06T08:12:54;18.33;;;10.23;;
14907;SDS011;7545;52.092;7.006;2024-01-06T08:15:20;19.20;;;9.83;;
14907;SDS011;7545;52.092;7.006;2024-01-06T08:17:46;14.13;;;10.47;;
14907;SDS011;7545;52.092;7.006;2024-01-06T08:20:12;15.33;;;9.13;;
14907;SDS011;7545;52.092;7.006;2024-01-06T08:22:37;16.90;;;9.57;;
14907;SDS011;7545;52.092;7.006;2024-01-06T08:25:03;13.73;;;8.87;;
14907;SDS011;7545;52.092;7.006;2024-01-06T08:27:31;13.47;;;9.10;;
14907;SDS011;7545;52.092;7.006;2024-01-06T08:29:57;13.60;;;9.03;;
14907;SDS011;7545;52.092;7.006;2024-01-06T08:32:22;14.50;;;10.03;;
14907;SDS011;7545;52.092;7.006;2024-01-06T08:34:48;12.87;;;9.23;;
14907;SDS011;7545;52.092;7.006;2024-01-06T08:37:13;14.57;;;9.23;;
14907;SDS011;7545;52.092;7.006;2024-01-06T08:39:39;14.83;;;8.83;;
14907;SDS011;7545;52.092;7.006;2024-01-06T08:42:05;11.30;;;8.23;;
14907;SDS011;7545;52.092;7.006;2024-01-06T08:44:30;14.97;;;9.13;;
14907;SDS011;7545;52.092;7.006;2024-01-06T08:46:56;13.07;;;8.80;;
14907;SDS011;7545;52.092;7.006;2024-01-06T08:49:21;13.63;;;9.13;;
14907;SDS011;7545;52.092;7.006;2024-01-06T08:51:47;15.93;;;9.40;;
14907;SDS011;7545;52.092;7.006;2024-01-06T08:54:12;13.13;;;8.50;;
14907;SDS011;7545;52.092;7.006;2024-01-06T08:56:38;15.27;;;9.40;;
14907;SDS011;7545;52.092;7.006;2024-01-06T08:59:04;19.03;;;9.53;;
14907;SDS011;7545;52.092;7.006;2024-01-06T09:01:30;13.47;;;9.00;;
14907;SDS011;7545;52.092;7.006;2024-01-06T09:03:56;12.87;;;8.63;;
14907;SDS011;7545;52.092;7.006;2024-01-06T09:06:22;12.23;;;8.23;;
14907;SDS011;7545;52.092;7.006;2024-01-06T09:08:48;12.73;;;8.07;;
14907;SDS011;7545;52.092;7.006;2024-01-06T09:11:14;12.83;;;8.20;;
14907;SDS011;7545;52.092;7.006;2024-01-06T09:13:39;12.73;;;7.13;;
14907;SDS011;7545;52.092;7.006;2024-01-06T09:16:05;12.27;;;7.77;;
14907;SDS011;7545;52.092;7.006;2024-01-06T09:18:31;10.87;;;7.53;;
14907;SDS011;7545;52.092;7.006;2024-01-06T09:20:57;12.47;;;8.47;;
14907;SDS011;7545;52.092;7.006;2024-01-06T09:23:22;16.27;;;9.20;;
14907;SDS011;7545;52.092;7.006;2024-01-06T09:25:48;14.30;;;8.67;;
14907;SDS011;7545;52.092;7.006;2024-01-06T09:28:17;13.20;;;8.10;;
14907;SDS011;7545;52.092;7.006;2024-01-06T09:30:43;11.83;;;7.97;;
14907;SDS011;7545;52.092;7.006;2024-01-06T09:33:08;10.80;;;7.70;;
14907;SDS011;7545;52.092;7.006;2024-01-06T09:35:34;13.20;;;8.33;;
14907;SDS011;7545;52.092;7.006;2024-01-06T09:38:00;14.97;;;8.63;;
14907;SDS011;7545;52.092;7.006;2024-01-06T09:40:25;13.30;;;8.90;;
14907;SDS011;7545;52.092;7.006;2024-01-06T09:42:51;14.00;;;8.60;;
14907;SDS011;7545;52.092;7.006;2024-01-06T09:45:20;14.57;;;8.60;;
14907;SDS011;7545;52.092;7.006;2024-01-06T09:47:50;13.87;;;8.33;;
14907;SDS011;7545;52.092;7.006;2024-01-06T09:50:20;13.20;;;9.20;;
14907;SDS011;7545;52.092;7.006;2024-01-06T09:52:46;10.30;;;7.10;;
14907;SDS011;7545;52.092;7.006;2024-01-06T09:55:23;13.03;;;8.80;;
14907;SDS011;7545;52.092;7.006;2024-01-06T09:57:51;14.37;;;8.93;;
14907;SDS011;7545;52.092;7.006;2024-01-06T10:00:18;12.20;;;8.40;;
14907;SDS011;7545;52.092;7.006;2024-01-06T10:02:45;13.73;;;8.43;;
14907;SDS011;7545;52.092;7.006;2024-01-06T10:05:11;13.27;;;9.10;;
14907;SDS011;7545;52.092;7.006;2024-01-06T10:07:38;14.17;;;9.17;;
14907;SDS011;7545;52.092;7.006;2024-01-06T10:10:07;12.23;;;8.83;;
14907;SDS011;7545;52.092;7.006;2024-01-06T10:12:32;12.17;;;7.93;;
14907;SDS011;7545;52.092;7.006;2024-01-06T10:14:58;12.47;;;7.73;;
14907;SDS011;7545;52.092;7.006;2024-01-06T10:17:24;15.03;;;8.67;;
14907;SDS011;7545;52.092;7.006;2024-01-06T10:19:49;14.90;;;8.83;;
14907;SDS011;7545;52.092;7.006;2024-01-06T10:22:18;13.07;;;8.53;;
14907;SDS011;7545;52.092;7.006;2024-01-06T10:24:44;9.70;;;6.90;;
14907;SDS011;7545;52.092;7.006;2024-01-06T10:27:10;12.13;;;7.63;;
14907;SDS011;7545;52.092;7.006;2024-01-06T10:29:36;9.37;;;7.07;;
14907;SDS011;7545;52.092;7.006;2024-01-06T10:32:01;10.87;;;6.83;;
14907;SDS011;7545;52.092;7.006;2024-01-06T10:34:28;10.50;;;7.20;;
14907;SDS011;7545;52.092;7.006;2024-01-06T10:36:54;11.30;;;6.87;;
14907;SDS011;7545;52.092;7.006;2024-01-06T10:39:20;10.13;;;6.77;;
14907;SDS011;7545;52.092;7.006;2024-01-06T10:41:49;12.97;;;7.13;;
14907;SDS011;7545;52.092;7.006;2024-01-06T10:44:16;9.23;;;6.47;;
14907;SDS011;7545;52.092;7.006;2024-01-06T10:46:42;9.40;;;6.70;;
14907;SDS011;7545;52.092;7.006;2024-01-06T10:49:09;9.37;;;7.43;;
14907;SDS011;7545;52.092;7.006;2024-01-06T10:51:37;7.57;;;6.20;;
14907;SDS011;7545;52.092;7.006;2024-01-06T10:54:03;8.50;;;6.20;;
14907;SDS011;7545;52.092;7.006;2024-01-06T10:56:30;10.27;;;6.93;;
14907;SDS011;7545;52.092;7.006;2024-01-06T10:59:01;11.97;;;6.43;;
14907;SDS011;7545;52.092;7.006;2024-01-06T11:01:29;7.30;;;5.80;;
14907;SDS011;7545;52.092;7.006;2024-01-06T11:03:55;8.53;;;6.47;;
14907;SDS011;7545;52.092;7.006;2024-01-06T11:06:21;11.27;;;6.53;;
14907;SDS011;7545;52.092;7.006;2024-01-06T11:08:54;6.87;;;5.50;;
14907;SDS011;7545;52.092;7.006;2024-01-06T11:11:26;8.67;;;5.67;;
14907;SDS011;7545;52.092;7.006;2024-01-06T11:13:52;11.20;;;7.43;;
14907;SDS011;7545;52.092;7.006;2024-01-06T11:16:38;8.63;;;6.10;;
14907;SDS011;7545;52.092;7.006;2024-01-06T11:19:34;9.33;;;6.93;;
14907;SDS011;7545;52.092;7.006;2024-01-06T11:22:28;8.67;;;6.00;;
14907;SDS011;7545;52.092;7.006;2024-01-06T11:25:05;8.73;;;6.27;;
14907;SDS011;7545;52.092;7.006;2024-01-06T11:27:32;10.13;;;6.67;;
14907;SDS011;7545;52.092;7.006;2024-01-06T11:29:58;8.77;;;6.60;;
14907;SDS011;7545;52.092;7.006;2024-01-06T11:34:55;9.63;;;6.80;;
14907;SDS011;7545;52.092;7.006;2024-01-06T11:40:10;10.97;;;7.27;;
14907;SDS011;7545;52.092;7.006;2024-01-06T11:42:41;10.03;;;7.07;;
14907;SDS011;7545;52.092;7.006;2024-01-06T11:45:07;9.90;;;7.10;;
14907;SDS011;7545;52.092;7.006;2024-01-06T11:47:34;9.73;;;6.60;;
14907;SDS011;7545;52.092;7.006;2024-01-06T11:50:00;10.80;;;7.13;;
14907;SDS011;7545;52.092;7.006;2024-01-06T11:52:33;8.67;;;5.63;;
14907;SDS011;7545;52.092;7.006;2024-01-06T11:54:59;8.97;;;6.53;;
14907;SDS011;7545;52.092;7.006;2024-01-06T11:57:26;10.50;;;7.07;;
14907;SDS011;7545;52.092;7.006;2024-01-06T11:59:53;10.47;;;7.10;;
14907;SDS011;7545;52.092;7.006;2024-01-06T12:02:19;10.47;;;7.20;;
14907;SDS011;7545;52.092;7.006;2024-01-06T12:04:49;9.10;;;6.90;;
14907;SDS011;7545;52.092;7.006;2024-01-06T12:07:16;12.47;;;7.60;;
14907;SDS011;7545;52.092;7.006;2024-01-06T12:09:42;9.37;;;6.67;;
14907;SDS011;7545;52.092;7.006;2024-01-06T12:12:07;6.77;;;5.77;;
14907;SDS011;7545;52.092;7.006;2024-01-06T12:14:35;7.83;;;6.03;;
14907;SDS011;7545;52.092;7.006;2024-01-06T12:17:01;9.20;;;6.00;;
14907;SDS011;7545;52.092;7.006;2024-01-06T12:19:30;7.67;;;5.53;;
14907;SDS011;7545;52.092;7.006;2024-01-06T12:21:57;8.13;;;5.87;;
14907;SDS011;7545;52.092;7.006;2024-01-06T12:24:23;8.33;;;6.23;;
14907;SDS011;7545;52.092;7.006;2024-01-06T12:26:49;7.63;;;5.67;;
14907;SDS011;7545;52.092;7.006;2024-01-06T12:29:16;6.80;;;5.20;;
14907;SDS011;7545;52.092;7.006;2024-01-06T12:31:42;8.33;;;5.50;;
14907;SDS011;7545;52.092;7.006;2024-01-06T12:34:09;8.53;;;6.10;;
14907;SDS011;7545;52.092;7.006;2024-01-06T12:36:38;9.37;;;6.00;;
14907;SDS011;7545;52.092;7.006;2024-01-06T12:39:06;6.80;;;5.90;;
14907;SDS011;7545;52.092;7.006;2024-01-06T12:41:38;8.67;;;6.23;;
14907;SDS011;7545;52.092;7.006;2024-01-06T12:44:06;8.67;;;6.23;;
14907;SDS011;7545;52.092;7.006;2024-01-06T12:46:33;8.30;;;6.03;;
14907;SDS011;7545;52.092;7.006;2024-01-06T12:48:58;9.50;;;5.93;;
14907;SDS011;7545;52.092;7.006;2024-01-06T12:51:24;8.37;;;5.90;;
14907;SDS011;7545;52.092;7.006;2024-01-06T12:53:50;8.70;;;6.73;;
14907;SDS011;7545;52.092;7.006;2024-01-06T12:56:16;8.27;;;6.70;;
14907;SDS011;7545;52.092;7.006;2024-01-06T12:58:42;8.77;;;6.87;;
14907;SDS011;7545;52.092;7.006;2024-01-06T13:01:08;9.80;;;6.80;;
14907;SDS011;7545;52.092;7.006;2024-01-06T13:03:34;9.47;;;6.80;;
14907;SDS011;7545;52.092;7.006;2024-01-06T13:06:00;8.77;;;6.47;;
14907;SDS011;7545;52.092;7.006;2024-01-06T13:08:26;8.17;;;5.60;;
14907;SDS011;7545;52.092;7.006;2024-01-06T13:10:53;8.90;;;6.47;;
14907;SDS011;7545;52.092;7.006;2024-01-06T13:13:19;11.00;;;5.97;;
14907;SDS011;7545;52.092;7.006;2024-01-06T13:15:44;8.17;;;6.10;;
14907;SDS011;7545;52.092;7.006;2024-01-06T13:18:11;11.77;;;6.80;;
14907;SDS011;7545;52.092;7.006;2024-01-06T13:20:37;8.67;;;6.47;;
14907;SDS011;7545;52.092;7.006;2024-01-06T13:23:05;9.37;;;6.57;;
14907;SDS011;7545;52.092;7.006;2024-01-06T13:25:31;8.87;;;6.47;;
14907;SDS011;7545;52.092;7.006;2024-01-06T13:27:57;8.77;;;6.17;;
14907;SDS011;7545;52.092;7.006;2024-01-06T13:30:24;9.17;;;6.67;;
14907;SDS011;7545;52.092;7.006;2024-01-06T13:32:50;8.77;;;6.67;;
14907;SDS011;7545;52.092;7.006;2024-01-06T13:35:22;7.13;;;5.73;;
14907;SDS011;7545;52.092;7.006;2024-01-06T13:37:50;7.97;;;6.20;;
14907;SDS011;7545;52.092;7.006;2024-01-06T13:40:16;9.37;;;6.97;;
14907;SDS011;7545;52.092;7.006;2024-01-06T13:42:45;10.07;;;6.93;;
14907;SDS011;7545;52.092;7.006;2024-01-06T13:45:11;11.20;;;7.67;;
14907;SDS011;7545;52.092;7.006;2024-01-06T13:47:38;12.53;;;7.23;;
14907;SDS011;7545;52.092;7.006;2024-01-06T13:50:06;9.73;;;7.00;;
14907;SDS011;7545;52.092;7.006;2024-01-06T13:52:33;13.40;;;8.90;;
14907;SDS011;7545;52.092;7.006;2024-01-06T13:54:59;11.63;;;8.07;;
14907;SDS011;7545;52.092;7.006;2024-01-06T13:57:25;11.70;;;8.60;;
14907;SDS011;7545;52.092;7.006;2024-01-06T13:59:50;14.37;;;8.10;;
14907;SDS011;7545;52.092;7.006;2024-01-06T14:02:16;14.37;;;9.83;;
14907;SDS011;7545;52.092;7.006;2024-01-06T14:04:42;14.67;;;9.10;;
14907;SDS011;7545;52.092;7.006;2024-01-06T14:07:08;14.87;;;9.03;;
14907;SDS011;7545;52.092;7.006;2024-01-06T14:09:35;12.80;;;8.97;;
14907;SDS011;7545;52.092;7.006;2024-01-06T14:12:01;14.43;;;9.13;;
14907;SDS011;7545;52.092;7.006;2024-01-06T14:14:27;14.67;;;9.60;;
14907;SDS011;7545;52.092;7.006;2024-01-06T14:16:52;16.00;;;8.73;;
14907;SDS011;7545;52.092;7.006;2024-01-06T14:19:18;12.83;;;8.90;;
14907;SDS011;7545;52.092;7.006;2024-01-06T14:21:44;15.43;;;9.97;;
14907;SDS011;7545;52.092;7.006;2024-01-06T14:24:09;16.53;;;10.40;;
14907;SDS011;7545;52.092;7.006;2024-01-06T14:26:35;12.23;;;9.07;;
14907;SDS011;7545;52.092;7.006;2024-01-06T14:29:01;14.27;;;9.03;;
14907;SDS011;7545;52.092;7.006;2024-01-06T14:31:27;16.30;;;9.83;;
14907;SDS011;7545;52.092;7.006;2024-01-06T14:33:52;15.77;;;8.73;;
14907;SDS011;7545;52.092;7.006;2024-01-06T14:36:18;14.63;;;9.07;;
14907;SDS011;7545;52.092;7.006;2024-01-06T14:38:44;13.23;;;8.90;;
14907;SDS011;7545;52.092;7.006;2024-01-06T14:41:09;14.87;;;8.77;;
14907;SDS011;7545;52.092;7.006;2024-01-06T14:43:35;15.37;;;9.33;;
14907;SDS011;7545;52.092;7.006;2024-01-06T14:46:00;15.47;;;9.67;;
14907;SDS011;7545;52.092;7.006;2024-01-06T14:48:26;14.43;;;9.63;;
14907;SDS011;7545;52.092;7.006;2024-01-06T14:50:51;15.60;;;10.67;;